Terminal Aerodrome Forecast
Issued by NWS

Home | Current Version | Previous Version | Text Only | Print | Product List | Glossary On
Versions: 1 2 3 4 5 6 7 8 9 10 11 12 13 14 15 16 17 18 19 20 21
000
FTUS43 KGRR 051500 AAA
TAFMKG
TAF AMD
KMKG 051512Z 0515/0612 10010KT 6SM -RA OVC050
     FM052300 10007KT P6SM OVC015
     FM060000 10006KT 4SM BR OVC007
     FM060600 12007KT 2SM -DZ BR OVC003=

USA.gov is the U.S. government's official web portal to all federal, state and local government web resources and services.